sensor_id;sensor_type;location;lat;lon;timestamp;temperature;humidity
30308;DHT22;17114;52.314;8.910;2022-08-27T00:00:46;19.40;99.90
30308;DHT22;17114;52.314;8.910;2022-08-27T00:03:13;19.40;99.90
30308;DHT22;17114;52.314;8.910;2022-08-27T00:05:40;19.40;99.90
30308;DHT22;17114;52.314;8.910;2022-08-27T00:08:08;19.40;99.90
30308;DHT22;17114;52.314;8.910;2022-08-27T00:10:39;19.40;99.90
30308;DHT22;17114;52.314;8.910;2022-08-27T00:13:07;19.40;99.90
30308;DHT22;17114;52.314;8.910;2022-08-27T00:15:35;19.40;99.90
30308;DHT22;17114;52.314;8.910;2022-08-27T00:18:03;19.40;99.90
30308;DHT22;17114;52.314;8.910;2022-08-27T00:20:31;19.40;99.90
30308;DHT22;17114;52.314;8.910;2022-08-27T00:22:58;19.40;99.90
30308;DHT22;17114;52.314;8.910;2022-08-27T00:25:26;19.40;99.90
30308;DHT22;17114;52.314;8.910;2022-08-27T00:27:53;19.40;99.90
30308;DHT22;17114;52.314;8.910;2022-08-27T00:30:21;19.40;99.90
30308;DHT22;17114;52.314;8.910;2022-08-27T00:32:49;19.30;99.90
30308;DHT22;17114;52.314;8.910;2022-08-27T00:35:16;19.30;99.90
30308;DHT22;17114;52.314;8.910;2022-08-27T00:37:44;19.30;99.90
30308;DHT22;17114;52.314;8.910;2022-08-27T00:40:15;19.30;99.90
30308;DHT22;17114;52.314;8.910;2022-08-27T00:42:43;19.30;99.90
30308;DHT22;17114;52.314;8.910;2022-08-27T00:45:15;19.30;99.90
30308;DHT22;17114;52.314;8.910;2022-08-27T00:47:46;19.30;99.90
30308;DHT22;17114;52.314;8.910;2022-08-27T00:50:20;19.20;99.90
30308;DHT22;17114;52.314;8.910;2022-08-27T00:52:56;19.10;99.90
30308;DHT22;17114;52.314;8.910;2022-08-27T00:55:31;19.10;99.90
30308;DHT22;17114;52.314;8.910;2022-08-27T00:58:13;19.00;99.90
30308;DHT22;17114;52.314;8.910;2022-08-27T01:00:44;18.90;99.90
30308;DHT22;17114;52.314;8.910;2022-08-27T01:03:13;18.90;99.90
30308;DHT22;17114;52.314;8.910;2022-08-27T01:05:41;18.90;99.90
30308;DHT22;17114;52.314;8.910;2022-08-27T01:08:13;18.90;99.90
30308;DHT22;17114;52.314;8.910;2022-08-27T01:10:41;18.90;99.90
30308;DHT22;17114;52.314;8.910;2022-08-27T01:13:11;18.90;99.90
30308;DHT22;17114;52.314;8.910;2022-08-27T01:15:39;18.90;99.90
30308;DHT22;17114;52.314;8.910;2022-08-27T01:18:07;18.80;99.90
30308;DHT22;17114;52.314;8.910;2022-08-27T01:21:13;18.80;99.90
30308;DHT22;17114;52.314;8.910;2022-08-27T01:23:49;18.80;99.90
30308;DHT22;17114;52.314;8.910;2022-08-27T01:26:17;18.80;99.90
30308;DHT22;17114;52.314;8.910;2022-08-27T01:28:44;18.80;99.90
30308;DHT22;17114;52.314;8.910;2022-08-27T01:31:12;18.80;99.90
30308;DHT22;17114;52.314;8.910;2022-08-27T01:33:40;18.80;99.90
30308;DHT22;17114;52.314;8.910;2022-08-27T01:36:07;18.80;99.90
30308;DHT22;17114;52.314;8.910;2022-08-27T01:38:34;18.80;99.90
30308;DHT22;17114;52.314;8.910;2022-08-27T01:41:02;18.70;99.90
30308;DHT22;17114;52.314;8.910;2022-08-27T01:43:29;18.80;99.90
30308;DHT22;17114;52.314;8.910;2022-08-27T01:45:57;18.70;99.90
30308;DHT22;17114;52.314;8.910;2022-08-27T01:48:27;18.70;99.90
30308;DHT22;17114;52.314;8.910;2022-08-27T01:50:54;18.70;99.90
30308;DHT22;17114;52.314;8.910;2022-08-27T01:53:24;18.70;99.90
30308;DHT22;17114;52.314;8.910;2022-08-27T01:55:53;18.60;99.90
30308;DHT22;17114;52.314;8.910;2022-08-27T01:58:26;18.60;99.90
30308;DHT22;17114;52.314;8.910;2022-08-27T02:00:56;18.60;99.90
30308;DHT22;17114;52.314;8.910;2022-08-27T02:03:25;18.60;99.90
30308;DHT22;17114;52.314;8.910;2022-08-27T02:05:53;18.50;99.90
30308;DHT22;17114;52.314;8.910;2022-08-27T02:08:23;18.50;99.90
30308;DHT22;17114;52.314;8.910;2022-08-27T02:10:50;18.50;99.90
30308;DHT22;17114;52.314;8.910;2022-08-27T02:13:18;18.50;99.90
30308;DHT22;17114;52.314;8.910;2022-08-27T02:15:45;18.50;99.90
30308;DHT22;17114;52.314;8.910;2022-08-27T02:18:13;18.40;99.90
30308;DHT22;17114;52.314;8.910;2022-08-27T02:20:43;18.40;99.90
30308;DHT22;17114;52.314;8.910;2022-08-27T02:23:11;18.40;99.90
30308;DHT22;17114;52.314;8.910;2022-08-27T02:25:38;18.40;99.90
30308;DHT22;17114;52.314;8.910;2022-08-27T02:28:07;18.40;99.90
30308;DHT22;17114;52.314;8.910;2022-08-27T02:30:35;18.50;99.90
30308;DHT22;17114;52.314;8.910;2022-08-27T02:33:03;18.50;99.90
30308;DHT22;17114;52.314;8.910;2022-08-27T02:35:33;18.40;99.90
30308;DHT22;17114;52.314;8.910;2022-08-27T02:38:00;18.40;99.90
30308;DHT22;17114;52.314;8.910;2022-08-27T02:40:28;18.40;99.90
30308;DHT22;17114;52.314;8.910;2022-08-27T02:42:55;18.30;99.90
30308;DHT22;17114;52.314;8.910;2022-08-27T02:45:22;18.30;99.90
30308;DHT22;17114;52.314;8.910;2022-08-27T02:47:49;18.30;99.90
30308;DHT22;17114;52.314;8.910;2022-08-27T02:50:17;18.30;99.90
30308;DHT22;17114;52.314;8.910;2022-08-27T02:52:44;18.30;99.90
30308;DHT22;17114;52.314;8.910;2022-08-27T02:55:12;18.20;99.90
30308;DHT22;17114;52.314;8.910;2022-08-27T02:57:43;18.20;99.90
30308;DHT22;17114;52.314;8.910;2022-08-27T03:00:13;18.20;99.90
30308;DHT22;17114;52.314;8.910;2022-08-27T03:02:40;18.20;99.90
30308;DHT22;17114;52.314;8.910;2022-08-27T03:05:09;18.20;99.90
30308;DHT22;17114;52.314;8.910;2022-08-27T03:07:37;18.20;99.90
30308;DHT22;17114;52.314;8.910;2022-08-27T03:10:05;18.20;99.90
30308;DHT22;17114;52.314;8.910;2022-08-27T03:12:33;18.20;99.90
30308;DHT22;17114;52.314;8.910;2022-08-27T03:15:07;18.10;99.90
30308;DHT22;17114;52.314;8.910;2022-08-27T03:17:35;18.10;99.90
30308;DHT22;17114;52.314;8.910;2022-08-27T03:20:21;18.10;99.90
30308;DHT22;17114;52.314;8.910;2022-08-27T03:22:48;18.10;99.90
30308;DHT22;17114;52.314;8.910;2022-08-27T03:25:16;18.00;99.90
30308;DHT22;17114;52.314;8.910;2022-08-27T03:27:44;18.00;99.90
30308;DHT22;17114;52.314;8.910;2022-08-27T03:30:15;18.00;99.90
30308;DHT22;17114;52.314;8.910;2022-08-27T03:32:45;18.00;99.90
30308;DHT22;17114;52.314;8.910;2022-08-27T03:35:13;18.00;99.90
30308;DHT22;17114;52.314;8.910;2022-08-27T03:37:40;18.00;99.90
30308;DHT22;17114;52.314;8.910;2022-08-27T03:40:08;18.00;99.90
30308;DHT22;17114;52.314;8.910;2022-08-27T03:42:36;18.00;99.90
30308;DHT22;17114;52.314;8.910;2022-08-27T03:45:05;18.00;99.90
30308;DHT22;17114;52.314;8.910;2022-08-27T03:47:32;17.90;99.90
30308;DHT22;17114;52.314;8.910;2022-08-27T03:50:00;18.00;99.90
30308;DHT22;17114;52.314;8.910;2022-08-27T03:52:27;18.00;99.90
30308;DHT22;17114;52.314;8.910;2022-08-27T03:54:57;18.00;99.90
30308;DHT22;17114;52.314;8.910;2022-08-27T03:57:24;18.00;99.90
30308;DHT22;17114;52.314;8.910;2022-08-27T03:59:51;18.00;99.90
30308;DHT22;17114;52.314;8.910;2022-08-27T04:02:20;18.00;99.90
30308;DHT22;17114;52.314;8.910;2022-08-27T04:04:47;18.00;99.90
30308;DHT22;17114;52.314;8.910;2022-08-27T04:07:14;18.00;99.90
30308;DHT22;17114;52.314;8.910;2022-08-27T04:09:41;17.90;99.90
30308;DHT22;17114;52.314;8.910;2022-08-27T04:12:08;18.00;99.90
30308;DHT22;17114;52.314;8.910;2022-08-27T04:14:35;18.00;99.90
30308;DHT22;17114;52.314;8.910;2022-08-27T04:17:03;18.00;99.90
30308;DHT22;17114;52.314;8.910;2022-08-27T04:19:30;18.00;99.90
30308;DHT22;17114;52.314;8.910;2022-08-27T04:22:04;18.00;99.90
30308;DHT22;17114;52.314;8.910;2022-08-27T04:24:33;18.10;99.90
30308;DHT22;17114;52.314;8.910;2022-08-27T04:27:03;18.00;99.90
30308;DHT22;17114;52.314;8.910;2022-08-27T04:29:31;18.00;99.90
30308;DHT22;17114;52.314;8.910;2022-08-27T04:31:59;18.00;99.90
30308;DHT22;17114;52.314;8.910;2022-08-27T04:34:26;18.00;99.90
30308;DHT22;17114;52.314;8.910;2022-08-27T04:36:55;18.00;99.90
30308;DHT22;17114;52.314;8.910;2022-08-27T04:39:23;18.00;99.90
30308;DHT22;17114;52.314;8.910;2022-08-27T04:41:52;18.00;99.90
30308;DHT22;17114;52.314;8.910;2022-08-27T04:44:21;18.00;99.90
30308;DHT22;17114;52.314;8.910;2022-08-27T04:46:56;18.00;99.90
30308;DHT22;17114;52.314;8.910;2022-08-27T04:49:25;17.90;99.90
30308;DHT22;17114;52.314;8.910;2022-08-27T04:51:54;18.00;99.90
30308;DHT22;17114;52.314;8.910;2022-08-27T04:54:22;18.00;99.90
30308;DHT22;17114;52.314;8.910;2022-08-27T04:56:59;18.00;99.90
30308;DHT22;17114;52.314;8.910;2022-08-27T04:59:26;18.00;99.90
30308;DHT22;17114;52.314;8.910;2022-08-27T05:01:53;17.90;99.90
30308;DHT22;17114;52.314;8.910;2022-08-27T05:04:20;18.00;99.90
30308;DHT22;17114;52.314;8.910;2022-08-27T05:06:52;18.00;99.90
30308;DHT22;17114;52.314;8.910;2022-08-27T05:09:20;18.00;99.90
30308;DHT22;17114;52.314;8.910;2022-08-27T05:11:52;18.00;99.90
30308;DHT22;17114;52.314;8.910;2022-08-27T05:14:21;18.10;99.90
30308;DHT22;17114;52.314;8.910;2022-08-27T05:16:50;18.00;99.90
30308;DHT22;17114;52.314;8.910;2022-08-27T05:19:17;18.00;99.90
30308;DHT22;17114;52.314;8.910;2022-08-27T05:21:47;18.10;99.90
30308;DHT22;17114;52.314;8.910;2022-08-27T05:24:16;18.10;99.90
30308;DHT22;17114;52.314;8.910;2022-08-27T05:26:43;18.00;99.90
30308;DHT22;17114;52.314;8.910;2022-08-27T05:29:14;18.10;99.90
30308;DHT22;17114;52.314;8.910;2022-08-27T05:31:41;18.10;99.90
30308;DHT22;17114;52.314;8.910;2022-08-27T05:34:09;18.10;99.90
30308;DHT22;17114;52.314;8.910;2022-08-27T05:36:51;18.10;99.90
30308;DHT22;17114;52.314;8.910;2022-08-27T05:39:21;18.10;99.90
30308;DHT22;17114;52.314;8.910;2022-08-27T05:41:49;18.20;99.90
30308;DHT22;17114;52.314;8.910;2022-08-27T05:44:18;18.20;99.90
30308;DHT22;17114;52.314;8.910;2022-08-27T05:47:05;18.10;99.90
30308;DHT22;17114;52.314;8.910;2022-08-27T05:49:32;18.20;99.90
30308;DHT22;17114;52.314;8.910;2022-08-27T05:51:59;18.30;99.90
30308;DHT22;17114;52.314;8.910;2022-08-27T05:54:26;18.30;99.90
30308;DHT22;17114;52.314;8.910;2022-08-27T05:56:53;18.20;99.90
30308;DHT22;17114;52.314;8.910;2022-08-27T05:59:20;18.20;99.90
30308;DHT22;17114;52.314;8.910;2022-08-27T06:02:06;18.30;99.90
30308;DHT22;17114;52.314;8.910;2022-08-27T06:04:34;18.30;99.90
30308;DHT22;17114;52.314;8.910;2022-08-27T06:07:16;18.30;99.90
30308;DHT22;17114;52.314;8.910;2022-08-27T06:09:44;18.30;99.90
30308;DHT22;17114;52.314;8.910;2022-08-27T06:12:13;18.40;99.90
30308;DHT22;17114;52.314;8.910;2022-08-27T06:14:40;18.40;99.90
30308;DHT22;17114;52.314;8.910;2022-08-27T06:17:07;18.40;99.90
30308;DHT22;17114;52.314;8.910;2022-08-27T06:19:34;18.40;99.90
30308;DHT22;17114;52.314;8.910;2022-08-27T06:22:02;18.40;99.90
30308;DHT22;17114;52.314;8.910;2022-08-27T06:24:38;18.40;99.90
30308;DHT22;17114;52.314;8.910;2022-08-27T06:27:09;18.40;99.90
30308;DHT22;17114;52.314;8.910;2022-08-27T06:29:37;18.40;99.90
30308;DHT22;17114;52.314;8.910;2022-08-27T06:32:04;18.40;99.90
30308;DHT22;17114;52.314;8.910;2022-08-27T06:34:32;18.40;99.90
30308;DHT22;17114;52.314;8.910;2022-08-27T06:36:59;18.40;99.90
30308;DHT22;17114;52.314;8.910;2022-08-27T06:39:27;18.40;99.90
30308;DHT22;17114;52.314;8.910;2022-08-27T06:41:56;18.40;99.90
30308;DHT22;17114;52.314;8.910;2022-08-27T06:44:24;18.30;99.90
30308;DHT22;17114;52.314;8.910;2022-08-27T06:46:51;18.40;99.90
30308;DHT22;17114;52.314;8.910;2022-08-27T06:49:18;18.40;99.90
30308;DHT22;17114;52.314;8.910;2022-08-27T06:51:46;18.40;99.90
30308;DHT22;17114;52.314;8.910;2022-08-27T06:54:14;18.40;99.90
30308;DHT22;17114;52.314;8.910;2022-08-27T06:56:43;18.40;99.90
30308;DHT22;17114;52.314;8.910;2022-08-27T06:59:21;18.40;99.90
30308;DHT22;17114;52.314;8.910;2022-08-27T07:01:50;18.40;99.90
30308;DHT22;17114;52.314;8.910;2022-08-27T07:04:21;18.30;99.90
30308;DHT22;17114;52.314;8.910;2022-08-27T07:06:59;18.40;99.90
30308;DHT22;17114;52.314;8.910;2022-08-27T07:09:26;18.30;99.90
30308;DHT22;17114;52.314;8.910;2022-08-27T07:11:56;18.30;99.90
30308;DHT22;17114;52.314;8.910;2022-08-27T07:14:23;18.30;99.90
30308;DHT22;17114;52.314;8.910;2022-08-27T07:16:50;18.30;99.90
30308;DHT22;17114;52.314;8.910;2022-08-27T07:19:18;18.30;99.90
30308;DHT22;17114;52.314;8.910;2022-08-27T07:21:47;18.40;99.90
30308;DHT22;17114;52.314;8.910;2022-08-27T07:24:14;18.30;99.90
30308;DHT22;17114;52.314;8.910;2022-08-27T07:26:42;18.40;99.90
30308;DHT22;17114;52.314;8.910;2022-08-27T07:29:11;18.40;99.90
30308;DHT22;17114;52.314;8.910;2022-08-27T07:31:41;18.40;99.90
30308;DHT22;17114;52.314;8.910;2022-08-27T07:34:09;18.40;99.90
30308;DHT22;17114;52.314;8.910;2022-08-27T07:36:36;18.30;99.90
30308;DHT22;17114;52.314;8.910;2022-08-27T07:39:04;18.30;99.90
30308;DHT22;17114;52.314;8.910;2022-08-27T07:41:33;18.30;99.90
30308;DHT22;17114;52.314;8.910;2022-08-27T07:44:24;18.30;99.90
30308;DHT22;17114;52.314;8.910;2022-08-27T07:46:55;18.30;99.90
30308;DHT22;17114;52.314;8.910;2022-08-27T07:49:24;18.30;99.90
30308;DHT22;17114;52.314;8.910;2022-08-27T07:51:53;18.40;99.90
30308;DHT22;17114;52.314;8.910;2022-08-27T07:54:21;18.40;99.90
30308;DHT22;17114;52.314;8.910;2022-08-27T07:56:49;18.40;99.90
30308;DHT22;17114;52.314;8.910;2022-08-27T07:59:23;18.50;99.90
30308;DHT22;17114;52.314;8.910;2022-08-27T08:01:51;18.60;99.90
30308;DHT22;17114;52.314;8.910;2022-08-27T08:04:18;18.60;99.90
30308;DHT22;17114;52.314;8.910;2022-08-27T08:06:47;18.70;99.90
30308;DHT22;17114;52.314;8.910;2022-08-27T08:09:14;18.70;99.90
30308;DHT22;17114;52.314;8.910;2022-08-27T08:11:41;18.80;99.90
30308;DHT22;17114;52.314;8.910;2022-08-27T08:14:08;18.80;99.90
30308;DHT22;17114;52.314;8.910;2022-08-27T08:16:36;18.90;99.90
30308;DHT22;17114;52.314;8.910;2022-08-27T08:19:03;18.80;99.90
30308;DHT22;17114;52.314;8.910;2022-08-27T08:21:30;18.80;99.90
30308;DHT22;17114;52.314;8.910;2022-08-27T08:23:57;18.80;99.90
30308;DHT22;17114;52.314;8.910;2022-08-27T08:26:25;18.70;99.90
30308;DHT22;17114;52.314;8.910;2022-08-27T08:28:53;18.70;99.90
30308;DHT22;17114;52.314;8.910;2022-08-27T08:31:20;18.80;99.90
30308;DHT22;17114;52.314;8.910;2022-08-27T08:33:50;18.90;99.90
30308;DHT22;17114;52.314;8.910;2022-08-27T08:36:20;18.90;99.90
30308;DHT22;17114;52.314;8.910;2022-08-27T08:38:47;18.90;99.90
30308;DHT22;17114;52.314;8.910;2022-08-27T08:41:41;19.00;99.90
30308;DHT22;17114;52.314;8.910;2022-08-27T08:44:38;19.00;99.90
30308;DHT22;17114;52.314;8.910;2022-08-27T08:47:09;19.00;99.90
30308;DHT22;17114;52.314;8.910;2022-08-27T08:52:55;19.10;99.90
30308;DHT22;17114;52.314;8.910;2022-08-27T08:55:34;19.10;99.90
30308;DHT22;17114;52.314;8.910;2022-08-27T08:58:11;19.10;99.90
30308;DHT22;17114;52.314;8.910;2022-08-27T09:00:45;19.10;99.90
30308;DHT22;17114;52.314;8.910;2022-08-27T09:03:15;19.10;99.90
30308;DHT22;17114;52.314;8.910;2022-08-27T09:05:46;19.00;99.90
30308;DHT22;17114;52.314;8.910;2022-08-27T09:08:28;19.10;99.90
30308;DHT22;17114;52.314;8.910;2022-08-27T09:11:31;19.20;99.90
30308;DHT22;17114;52.314;8.910;2022-08-27T09:14:24;19.20;99.90
30308;DHT22;17114;52.314;8.910;2022-08-27T09:16:52;19.30;99.90
30308;DHT22;17114;52.314;8.910;2022-08-27T09:19:22;19.50;99.90
30308;DHT22;17114;52.314;8.910;2022-08-27T09:22:10;19.60;99.90
30308;DHT22;17114;52.314;8.910;2022-08-27T09:27:39;19.90;99.90
30308;DHT22;17114;52.314;8.910;2022-08-27T09:30:19;20.00;99.90
30308;DHT22;17114;52.314;8.910;2022-08-27T09:32:56;20.10;99.90
30308;DHT22;17114;52.314;8.910;2022-08-27T09:35:25;20.20;99.90
30308;DHT22;17114;52.314;8.910;2022-08-27T09:37:54;20.40;99.90
30308;DHT22;17114;52.314;8.910;2022-08-27T09:40:32;20.50;99.90
30308;DHT22;17114;52.314;8.910;2022-08-27T09:45:58;20.40;99.90
30308;DHT22;17114;52.314;8.910;2022-08-27T09:48:33;20.50;99.90
30308;DHT22;17114;52.314;8.910;2022-08-27T09:51:05;20.60;99.90
30308;DHT22;17114;52.314;8.910;2022-08-27T09:53:56;20.70;99.90
30308;DHT22;17114;52.314;8.910;2022-08-27T09:56:39;20.70;99.90
30308;DHT22;17114;52.314;8.910;2022-08-27T09:59:09;20.70;99.90
30308;DHT22;17114;52.314;8.910;2022-08-27T10:01:53;20.90;99.90
30308;DHT22;17114;52.314;8.910;2022-08-27T10:06:52;21.20;99.90
30308;DHT22;17114;52.314;8.910;2022-08-27T10:09:49;21.30;99.90
30308;DHT22;17114;52.314;8.910;2022-08-27T10:12:28;21.50;99.90
30308;DHT22;17114;52.314;8.910;2022-08-27T10:14:59;21.80;99.90
30308;DHT22;17114;52.314;8.910;2022-08-27T10:20:31;21.80;99.90
30308;DHT22;17114;52.314;8.910;2022-08-27T10:28:38;22.00;99.90
30308;DHT22;17114;52.314;8.910;2022-08-27T10:37:23;22.00;99.90
30308;DHT22;17114;52.314;8.910;2022-08-27T10:51:13;21.20;99.90
30308;DHT22;17114;52.314;8.910;2022-08-27T11:00:08;21.00;99.90
30308;DHT22;17114;52.314;8.910;2022-08-27T11:02:52;21.00;99.90
30308;DHT22;17114;52.314;8.910;2022-08-27T11:05:48;20.90;99.90
30308;DHT22;17114;52.314;8.910;2022-08-27T11:08:18;20.80;99.90
30308;DHT22;17114;52.314;8.910;2022-08-27T11:11:00;20.70;99.90
30308;DHT22;17114;52.314;8.910;2022-08-27T11:13:49;20.60;99.90
30308;DHT22;17114;52.314;8.910;2022-08-27T11:16:29;20.40;99.90
30308;DHT22;17114;52.314;8.910;2022-08-27T11:19:05;20.10;99.90
30308;DHT22;17114;52.314;8.910;2022-08-27T11:21:50;20.00;99.90
30308;DHT22;17114;52.314;8.910;2022-08-27T11:24:43;19.80;99.90
30308;DHT22;17114;52.314;8.910;2022-08-27T11:27:14;19.70;99.90
30308;DHT22;17114;52.314;8.910;2022-08-27T11:29:47;19.60;99.90
30308;DHT22;17114;52.314;8.910;2022-08-27T11:35:15;19.50;99.90
30308;DHT22;17114;52.314;8.910;2022-08-27T11:38:15;19.40;99.90
30308;DHT22;17114;52.314;8.910;2022-08-27T11:40:53;19.30;99.90
30308;DHT22;17114;52.314;8.910;2022-08-27T11:43:23;19.30;99.90
30308;DHT22;17114;52.314;8.910;2022-08-27T11:46:04;19.40;99.90
30308;DHT22;17114;52.314;8.910;2022-08-27T11:48:42;19.40;99.90
30308;DHT22;17114;52.314;8.910;2022-08-27T11:51:11;19.40;99.90
30308;DHT22;17114;52.314;8.910;2022-08-27T11:53:55;19.50;99.90
30308;DHT22;17114;52.314;8.910;2022-08-27T11:59:07;19.60;99.90
30308;DHT22;17114;52.314;8.910;2022-08-27T12:01:34;19.70;99.90
30308;DHT22;17114;52.314;8.910;2022-08-27T12:04:02;19.80;99.90
30308;DHT22;17114;52.314;8.910;2022-08-27T12:06:42;19.90;99.90
30308;DHT22;17114;52.314;8.910;2022-08-27T12:09:19;20.00;99.90
30308;DHT22;17114;52.314;8.910;2022-08-27T12:17:53;20.00;99.90
30308;DHT22;17114;52.314;8.910;2022-08-27T12:20:54;20.00;99.90
30308;DHT22;17114;52.314;8.910;2022-08-27T12:23:33;20.00;99.90
30308;DHT22;17114;52.314;8.910;2022-08-27T12:26:32;20.00;99.90
30308;DHT22;17114;52.314;8.910;2022-08-27T12:29:23;20.20;99.90
30308;DHT22;17114;52.314;8.910;2022-08-27T12:37:33;20.30;99.90
30308;DHT22;17114;52.314;8.910;2022-08-27T12:40:07;20.30;99.90
30308;DHT22;17114;52.314;8.910;2022-08-27T12:42:36;20.30;99.90
30308;DHT22;17114;52.314;8.910;2022-08-27T12:45:03;20.40;99.90
30308;DHT22;17114;52.314;8.910;2022-08-27T12:47:38;20.40;99.90
30308;DHT22;17114;52.314;8.910;2022-08-27T12:50:20;20.50;99.90
30308;DHT22;17114;52.314;8.910;2022-08-27T13:01:39;20.90;99.90
30308;DHT22;17114;52.314;8.910;2022-08-27T13:04:25;21.00;99.90
30308;DHT22;17114;52.314;8.910;2022-08-27T13:06:53;21.10;99.90
30308;DHT22;17114;52.314;8.910;2022-08-27T13:09:28;21.10;99.90
30308;DHT22;17114;52.314;8.910;2022-08-27T13:11:57;21.00;99.90
30308;DHT22;17114;52.314;8.910;2022-08-27T13:14:27;21.10;99.90
30308;DHT22;17114;52.314;8.910;2022-08-27T13:17:16;21.10;99.90
30308;DHT22;17114;52.314;8.910;2022-08-27T13:19:49;21.10;99.90
30308;DHT22;17114;52.314;8.910;2022-08-27T13:22:30;21.20;99.90
30308;DHT22;17114;52.314;8.910;2022-08-27T13:24:58;21.30;99.90
30308;DHT22;17114;52.314;8.910;2022-08-27T13:27:34;21.30;99.90
30308;DHT22;17114;52.314;8.910;2022-08-27T13:30:05;21.20;99.90
30308;DHT22;17114;52.314;8.910;2022-08-27T13:32:33;21.20;99.90
30308;DHT22;17114;52.314;8.910;2022-08-27T13:35:01;21.20;99.90
30308;DHT22;17114;52.314;8.910;2022-08-27T13:37:43;21.30;99.90
30308;DHT22;17114;52.314;8.910;2022-08-27T13:40:26;21.40;99.90
30308;DHT22;17114;52.314;8.910;2022-08-27T13:43:05;21.40;99.90
30308;DHT22;17114;52.314;8.910;2022-08-27T13:45:38;21.40;99.90
30308;DHT22;17114;52.314;8.910;2022-08-27T13:48:06;21.50;99.90
30308;DHT22;17114;52.314;8.910;2022-08-27T13:50:35;21.50;99.90
30308;DHT22;17114;52.314;8.910;2022-08-27T13:55:48;21.70;99.90
30308;DHT22;17114;52.314;8.910;2022-08-27T13:58:28;21.70;99.90
30308;DHT22;17114;52.314;8.910;2022-08-27T14:01:22;21.80;99.90
30308;DHT22;17114;52.314;8.910;2022-08-27T14:06:44;21.80;99.90
30308;DHT22;17114;52.314;8.910;2022-08-27T14:09:22;21.70;99.90
30308;DHT22;17114;52.314;8.910;2022-08-27T14:12:08;21.80;99.90
30308;DHT22;17114;52.314;8.910;2022-08-27T14:14:40;21.80;99.90
30308;DHT22;17114;52.314;8.910;2022-08-27T14:17:21;21.80;99.90
30308;DHT22;17114;52.314;8.910;2022-08-27T14:19:59;21.70;99.90
30308;DHT22;17114;52.314;8.910;2022-08-27T14:22:26;21.60;99.90
30308;DHT22;17114;52.314;8.910;2022-08-27T14:24:53;21.60;99.90
30308;DHT22;17114;52.314;8.910;2022-08-27T14:27:20;21.60;99.90
30308;DHT22;17114;52.314;8.910;2022-08-27T14:29:48;21.60;99.90
30308;DHT22;17114;52.314;8.910;2022-08-27T14:32:15;21.50;99.90
30308;DHT22;17114;52.314;8.910;2022-08-27T14:34:46;21.50;99.90
30308;DHT22;17114;52.314;8.910;2022-08-27T14:37:14;21.60;99.90
30308;DHT22;17114;52.314;8.910;2022-08-27T14:39:42;21.60;99.90
30308;DHT22;17114;52.314;8.910;2022-08-27T14:42:11;21.60;99.90
30308;DHT22;17114;52.314;8.910;2022-08-27T14:44:38;21.50;99.90
30308;DHT22;17114;52.314;8.910;2022-08-27T14:47:06;21.40;99.90
30308;DHT22;17114;52.314;8.910;2022-08-27T14:49:41;21.30;99.90
30308;DHT22;17114;52.314;8.910;2022-08-27T14:52:11;21.40;99.90
30308;DHT22;17114;52.314;8.910;2022-08-27T14:54:38;21.40;99.90
30308;DHT22;17114;52.314;8.910;2022-08-27T14:57:07;21.40;99.90
30308;DHT22;17114;52.314;8.910;2022-08-27T14:59:35;21.40;99.90
30308;DHT22;17114;52.314;8.910;2022-08-27T15:02:05;21.40;99.90
30308;DHT22;17114;52.314;8.910;2022-08-27T15:04:32;21.30;99.90
30308;DHT22;17114;52.314;8.910;2022-08-27T15:07:00;21.30;99.90
30308;DHT22;17114;52.314;8.910;2022-08-27T15:09:27;21.30;99.90
30308;DHT22;17114;52.314;8.910;2022-08-27T15:11:55;21.20;99.90
30308;DHT22;17114;52.314;8.910;2022-08-27T15:14:33;21.20;99.90
30308;DHT22;17114;52.314;8.910;2022-08-27T15:17:03;21.30;99.90
30308;DHT22;17114;52.314;8.910;2022-08-27T15:19:51;21.20;99.90
30308;DHT22;17114;52.314;8.910;2022-08-27T15:22:23;21.30;99.90
30308;DHT22;17114;52.314;8.910;2022-08-27T15:24:55;21.20;99.90
30308;DHT22;17114;52.314;8.910;2022-08-27T15:27:24;21.20;99.90
30308;DHT22;17114;52.314;8.910;2022-08-27T15:30:10;21.30;99.90
30308;DHT22;17114;52.314;8.910;2022-08-27T15:32:44;21.20;99.90
30308;DHT22;17114;52.314;8.910;2022-08-27T15:35:15;21.30;99.90
30308;DHT22;17114;52.314;8.910;2022-08-27T15:37:43;21.30;99.90
30308;DHT22;17114;52.314;8.910;2022-08-27T15:40:12;21.30;99.90
30308;DHT22;17114;52.314;8.910;2022-08-27T15:42:40;21.30;99.90
30308;DHT22;17114;52.314;8.910;2022-08-27T15:45:08;21.30;99.90
30308;DHT22;17114;52.314;8.910;2022-08-27T15:47:36;21.20;99.90
30308;DHT22;17114;52.314;8.910;2022-08-27T15:50:05;21.20;99.90
30308;DHT22;17114;52.314;8.910;2022-08-27T15:52:33;21.20;99.90
30308;DHT22;17114;52.314;8.910;2022-08-27T15:55:14;21.10;99.90
30308;DHT22;17114;52.314;8.910;2022-08-27T15:57:43;21.10;99.90
30308;DHT22;17114;52.314;8.910;2022-08-27T16:00:10;21.10;99.90
30308;DHT22;17114;52.314;8.910;2022-08-27T16:02:38;21.20;99.90
30308;DHT22;17114;52.314;8.910;2022-08-27T16:05:06;21.20;99.90
30308;DHT22;17114;52.314;8.910;2022-08-27T16:07:33;21.20;99.90
30308;DHT22;17114;52.314;8.910;2022-08-27T16:10:00;21.20;99.90
30308;DHT22;17114;52.314;8.910;2022-08-27T16:12:27;21.20;99.90
30308;DHT22;17114;52.314;8.910;2022-08-27T16:14:55;21.20;99.90
30308;DHT22;17114;52.314;8.910;2022-08-27T16:17:23;21.30;99.90
30308;DHT22;17114;52.314;8.910;2022-08-27T16:19:52;21.30;99.90
30308;DHT22;17114;52.314;8.910;2022-08-27T16:22:19;21.30;99.90
30308;DHT22;17114;52.314;8.910;2022-08-27T16:24:46;21.30;99.90
30308;DHT22;17114;52.314;8.910;2022-08-27T16:27:13;21.40;99.90
30308;DHT22;17114;52.314;8.910;2022-08-27T16:29:40;21.30;99.90
30308;DHT22;17114;52.314;8.910;2022-08-27T16:32:14;21.30;99.90
30308;DHT22;17114;52.314;8.910;2022-08-27T16:34:45;21.40;99.90
30308;DHT22;17114;52.314;8.910;2022-08-27T16:37:21;21.30;99.90
30308;DHT22;17114;52.314;8.910;2022-08-27T16:39:48;21.30;99.90
30308;DHT22;17114;52.314;8.910;2022-08-27T16:42:15;21.20;99.90
30308;DHT22;17114;52.314;8.910;2022-08-27T16:44:42;21.10;99.90
30308;DHT22;17114;52.314;8.910;2022-08-27T16:47:09;21.10;99.90
30308;DHT22;17114;52.314;8.910;2022-08-27T16:49:36;21.10;99.90
30308;DHT22;17114;52.314;8.910;2022-08-27T16:52:22;21.00;99.90
30308;DHT22;17114;52.314;8.910;2022-08-27T16:54:50;21.00;99.90
30308;DHT22;17114;52.314;8.910;2022-08-27T16:57:17;21.00;99.90
30308;DHT22;17114;52.314;8.910;2022-08-27T16:59:45;20.90;99.90
30308;DHT22;17114;52.314;8.910;2022-08-27T17:02:27;20.90;99.90
30308;DHT22;17114;52.314;8.910;2022-08-27T17:04:57;20.90;99.90
30308;DHT22;17114;52.314;8.910;2022-08-27T17:07:44;20.90;99.90
30308;DHT22;17114;52.314;8.910;2022-08-27T17:10:16;20.90;99.90
30308;DHT22;17114;52.314;8.910;2022-08-27T17:12:44;20.90;99.90